Terminal Aerodrome Forecast
Issued by NWS

Home | Current Version | Previous Version | Text Only | Print | Product List | Glossary On
Versions: 1 2 3 4 5 6 7 8 9 10 11 12 13 14 15 16 17 18 19 20
000
FTUS46 KLOX 051730
TAFLGB
TAF
KLGB 051730Z 0518/0618 16006KT P6SM OVC018
     FM051900 17008KT P6SM SKC
     FM060100 30010KT P6SM SKC
     FM060500 VRB03KT P6SM OVC015
     FM061600 16005KT P6SM OVC020=

USA.gov is the U.S. government's official web portal to all federal, state and local government web resources and services.